Time;durP1;ratioP1;P1;durP2;ratioP2;P2;SDS_P1;SDS_P2;PMS_P1;PMS_P2;Temp;Humidity;BMP_temperature;BMP_pressure;BME280_temperature;BME280_humidity;BME280_pressure;Samples;Min_cycle;Max_cycle;Signal;HPM_P1;HPM_P2
2021/11/04 00:00:49;;;;;;;18.75;8.35;;;;;;;10.25;100.00;97157.00;4965105;28;20138;-66
2021/11/04 00:03:16;;;;;;;22.02;8.55;;;;;;;10.25;100.00;97155.03;4965331;28;20078;-65
2021/11/04 00:05:42;;;;;;;18.75;8.13;;;;;;;9.83;100.00;97181.75;4965235;28;20153;-65
2021/11/04 00:08:09;;;;;;;15.65;7.40;;;;;;;10.10;100.00;97157.88;4965034;28;20509;-64
2021/11/04 00:10:36;;;;;;;14.73;7.43;;;;;;;10.12;100.00;97161.88;4965105;28;20054;-64
2021/11/04 00:13:03;;;;;;;15.50;7.07;;;;;;;9.85;100.00;97131.59;4963514;28;20054;-63
2021/11/04 00:15:30;;;;;;;22.67;8.15;;;;;;;9.96;100.00;97141.75;4964868;28;20057;-63
2021/11/04 00:17:58;;;;;;;19.35;8.27;;;;;;;10.01;100.00;97158.06;4965350;28;20083;-64
2021/11/04 00:20:26;;;;;;;15.70;7.45;;;;;;;10.10;100.00;97158.66;4963564;28;20057;-64
2021/11/04 00:22:53;;;;;;;16.08;7.68;;;;;;;10.15;100.00;97155.59;4964895;28;20058;-65
2021/11/04 00:25:20;;;;;;;18.92;8.23;;;;;;;10.12;100.00;97139.72;4964720;28;20059;-65
2021/11/04 00:27:48;;;;;;;19.98;8.73;;;;;;;10.04;100.00;97118.59;4964823;28;20054;-65
2021/11/04 00:30:16;;;;;;;16.98;7.57;;;;;;;10.33;100.00;97162.31;4965350;28;20062;-67
2021/11/04 00:32:45;;;;;;;16.40;8.45;;;;;;;10.21;100.00;97145.84;4964569;28;20062;-65
2021/11/04 00:35:13;;;;;;;19.38;8.75;;;;;;;10.41;100.00;97174.31;4963840;28;20086;-65
2021/11/04 00:37:40;;;;;;;16.30;8.57;;;;;;;10.46;100.00;97188.66;4964041;28;20051;-65
2021/11/04 00:40:08;;;;;;;19.50;8.70;;;;;;;10.09;100.00;97162.59;4965052;28;20066;-67
2021/11/04 00:42:34;;;;;;;11.82;6.35;;;;;;;10.28;100.00;97195.81;4964435;28;20059;-65
2021/11/04 00:45:01;;;;;;;11.32;6.70;;;;;;;9.85;100.00;97135.19;4964889;28;20058;-65
2021/11/04 00:47:28;;;;;;;12.65;7.20;;;;;;;9.68;100.00;97113.47;4964367;28;20062;-65
2021/11/04 00:49:55;;;;;;;16.48;7.40;;;;;;;10.14;100.00;97170.63;4964547;28;20051;-64
2021/11/04 00:52:21;;;;;;;10.00;7.10;;;;;;;10.28;100.00;97187.53;4962986;28;20106;-65
2021/11/04 00:54:48;;;;;;;14.05;7.22;;;;;;;10.49;100.00;97182.41;4964969;28;20055;-65
2021/11/04 00:57:15;;;;;;;14.75;7.30;;;;;;;10.60;100.00;97183.41;4963338;28;20514;-64
2021/11/04 00:59:42;;;;;;;12.63;7.47;;;;;;;10.58;100.00;97182.16;4964477;28;20059;-65
2021/11/04 01:02:08;;;;;;;15.88;9.05;;;;;;;10.58;100.00;97194.06;4968497;28;20035;-64
2021/11/04 01:04:35;;;;;;;19.98;9.43;;;;;;;10.47;100.00;97168.13;4968914;28;20084;-64
2021/11/04 01:07:03;;;;;;;17.88;9.63;;;;;;;8.67;100.00;96857.88;4967733;28;20051;-65
2021/11/04 01:09:29;;;;;;;20.65;8.95;;;;;;;9.95;100.00;97106.94;4966781;28;20425;-64
2021/11/04 01:11:56;;;;;;;17.30;8.75;;;;;;;10.84;100.00;97187.00;4966745;28;20051;-63
2021/11/04 01:14:23;;;;;;;17.65;8.73;;;;;;;10.80;100.00;97194.44;4968567;28;20050;-64
2021/11/04 01:16:50;;;;;;;18.92;9.45;;;;;;;10.72;100.00;97189.97;4966959;28;20066;-63
2021/11/04 01:19:17;;;;;;;16.20;8.45;;;;;;;10.80;100.00;97186.13;4966730;28;20054;-67
2021/11/04 01:21:43;;;;;;;16.33;8.30;;;;;;;10.78;100.00;97194.03;4968211;28;20057;-62
2021/11/04 01:24:10;;;;;;;16.98;8.80;;;;;;;10.42;100.00;97132.41;4968034;28;20057;-65
2021/11/04 01:26:37;;;;;;;15.25;8.48;;;;;;;10.73;100.00;97187.59;4968198;28;20065;-64
2021/11/04 01:29:04;;;;;;;15.35;7.72;;;;;;;10.64;100.00;97173.19;4966421;28;20198;-63
2021/11/04 01:31:31;;;;;;;17.60;8.55;;;;;;;10.81;100.00;97179.44;4968088;28;20514;-65
2021/11/04 01:33:57;;;;;;;22.83;8.65;;;;;;;10.95;100.00;97182.44;4967996;28;20078;-66
2021/11/04 01:36:24;;;;;;;16.02;8.00;;;;;;;10.92;100.00;97191.50;4968163;28;20442;-64
2021/11/04 01:38:51;;;;;;;17.33;8.27;;;;;;;10.83;100.00;97246.38;4968088;28;20076;-64
2021/11/04 01:41:18;;;;;;;14.00;8.13;;;;;;;10.81;100.00;97188.56;4967428;28;20066;-66
2021/11/04 01:43:45;;;;;;;19.17;8.25;;;;;;;10.86;100.00;97190.22;4967742;28;20054;-64
2021/11/04 01:46:12;;;;;;;13.65;7.65;;;;;;;10.83;100.00;97182.66;4967832;28;20051;-63
2021/11/04 01:48:40;;;;;;;16.95;8.85;;;;;;;10.90;100.00;97196.59;4966259;28;20481;-64
2021/11/04 01:51:07;;;;;;;16.35;9.40;;;;;;;10.73;100.00;97168.22;4966802;28;20051;-64
2021/11/04 01:53:33;;;;;;;19.15;9.52;;;;;;;10.84;100.00;97192.53;4967677;28;20050;-65
2021/11/04 01:56:00;;;;;;;16.42;8.45;;;;;;;10.97;100.00;97202.28;4967576;28;20062;-64
2021/11/04 01:58:27;;;;;;;15.43;7.75;;;;;;;10.75;100.00;97150.44;4967754;28;20065;-64
2021/11/04 02:00:55;;;;;;;16.25;7.85;;;;;;;10.69;100.00;97136.88;4966870;28;20065;-65
2021/11/04 02:03:28;;;;;;;16.40;7.82;;;;;;;11.09;100.00;97193.78;4967387;28;20051;-65
2021/11/04 02:06:17;;;;;;;17.90;7.00;;;;;;;10.83;100.00;97152.16;4965791;28;20062;-64
2021/11/04 02:08:52;;;;;;;17.80;8.32;;;;;;;11.10;100.00;97195.38;4967807;28;20397;-66
2021/11/04 02:11:35;;;;;;;16.00;7.40;;;;;;;11.10;100.00;97200.91;4966072;28;20516;-65
2021/11/04 02:14:08;;;;;;;15.48;7.32;;;;;;;11.07;100.00;97202.47;4966542;28;20055;-64
2021/11/04 02:16:36;;;;;;;;;;;;;;;11.06;100.00;97211.16;4966344;28;20047;-64
2021/11/04 02:19:41;;;;;;;12.63;7.05;;;;;;;10.86;100.00;97212.38;4967103;28;19926;-65
2021/11/04 02:22:21;;;;;;;14.80;7.68;;;;;;;10.15;100.00;97224.00;4964879;28;20520;-65
2021/11/04 02:25:10;;;;;;;23.02;9.45;;;;;;;10.34;100.00;97213.75;4967150;28;20494;-65
2021/11/04 02:27:40;;;;;;;16.65;8.27;;;;;;;10.22;100.00;97189.00;4967018;28;20532;-66
2021/11/04 02:30:07;;;;;;;20.25;9.45;;;;;;;9.83;100.00;97320.09;4965876;28;20057;-65
2021/11/04 02:32:36;;;;;;;26.67;11.43;;;;;;;10.24;100.00;97208.78;4966976;28;20258;-65
2021/11/04 02:35:05;;;;;;;26.13;10.68;;;;;;;10.41;100.00;97211.13;4967038;28;20109;-65
2021/11/04 02:37:32;;;;;;;16.45;9.18;;;;;;;10.58;100.00;97218.97;4966919;28;20050;-65
2021/11/04 02:40:00;;;;;;;17.27;8.60;;;;;;;10.66;100.00;97226.28;4965466;28;20058;-66
2021/11/04 02:42:27;;;;;;;16.52;8.63;;;;;;;9.72;100.00;97164.13;4965124;28;20608;-66
2021/11/04 02:44:54;;;;;;;16.15;9.38;;;;;;;9.85;100.00;97157.31;4967057;28;20527;-65
2021/11/04 02:47:21;;;;;;;15.27;8.98;;;;;;;9.78;100.00;97223.56;4966184;28;20191;-64
2021/11/04 02:49:51;;;;;;;15.95;8.88;;;;;;;9.90;100.00;97222.63;4967049;28;20057;-65
2021/11/04 02:52:18;;;;;;;17.65;9.10;;;;;;;10.02;100.00;97192.84;4965453;28;20050;-64
2021/11/04 02:55:05;;;;;;;18.27;9.90;;;;;;;10.27;100.00;97227.47;4966683;28;20061;-65
2021/11/04 02:57:41;;;;;;;16.70;8.00;;;;;;;10.09;100.00;97195.81;4966733;28;20051;-66
2021/11/04 03:00:08;;;;;;;16.17;8.77;;;;;;;10.47;100.00;97228.25;4966340;28;20055;-66
2021/11/04 03:02:35;;;;;;;18.38;9.82;;;;;;;10.04;100.00;97176.69;4965015;28;20054;-65
2021/11/04 03:05:02;;;;;;;21.58;10.85;;;;;;;10.74;100.00;97232.75;4964744;28;20059;-65
2021/11/04 03:07:28;;;;;;;17.55;9.65;;;;;;;10.86;100.00;97217.94;4965827;28;20542;-65
2021/11/04 03:09:55;;;;;;;19.05;10.00;;;;;;;10.86;100.00;97242.88;4966196;28;20050;-66
2021/11/04 03:12:22;;;;;;;18.13;9.65;;;;;;;10.98;100.00;97228.84;4966767;28;20054;-65
2021/11/04 03:14:49;;;;;;;19.90;10.43;;;;;;;10.19;100.00;97239.53;4965794;28;20046;-67
2021/11/04 03:17:16;;;;;;;17.95;9.32;;;;;;;9.80;100.00;97201.84;4964562;28;20073;-66
2021/11/04 03:19:43;;;;;;;18.83;10.38;;;;;;;10.39;100.00;97238.38;4966114;28;20054;-65
2021/11/04 03:22:10;;;;;;;20.50;10.15;;;;;;;10.43;100.00;97241.22;4964335;28;20286;-65
2021/11/04 03:24:37;;;;;;;14.55;8.80;;;;;;;10.46;100.00;97241.28;4966104;28;20493;-64
2021/11/04 03:27:07;;;;;;;14.45;8.18;;;;;;;10.53;100.00;97237.84;4965586;28;20054;-65
2021/11/04 03:29:37;;;;;;;15.10;8.80;;;;;;;10.68;100.00;97262.69;4965049;28;20526;-65
2021/11/04 03:32:10;;;;;;;15.65;8.25;;;;;;;10.80;100.00;97252.63;4965710;28;20438;-65
2021/11/04 03:34:38;;;;;;;19.63;8.97;;;;;;;8.86;100.00;96960.06;4964657;28;20069;-65
2021/11/04 03:37:06;;;;;;;15.85;8.55;;;;;;;10.72;100.00;97262.78;4963893;28;20054;-66
2021/11/04 03:39:34;;;;;;;14.50;7.95;;;;;;;10.80;100.00;97263.72;4964447;28;20423;-65
2021/11/04 03:42:02;;;;;;;14.50;8.25;;;;;;;10.78;100.00;97238.34;4965269;28;20459;-65
2021/11/04 03:44:29;;;;;;;19.40;8.73;;;;;;;10.46;100.00;97172.03;4965007;28;20441;-65
2021/11/04 03:46:57;;;;;;;18.20;8.70;;;;;;;11.04;100.00;97257.84;4963725;28;20142;-66
2021/11/04 03:49:25;;;;;;;14.60;8.02;;;;;;;10.85;100.00;97205.22;4965962;28;20051;-66
2021/11/04 03:51:54;;;;;;;15.48;8.43;;;;;;;11.09;100.00;97232.59;4964967;28;20089;-64
2021/11/04 03:54:23;;;;;;;13.20;7.30;;;;;;;11.27;100.00;97261.44;4964174;28;20054;-66
2021/11/04 03:56:51;;;;;;;14.52;8.02;;;;;;;11.22;100.00;97265.34;4965363;28;20055;-65
2021/11/04 03:59:18;;;;;;;16.83;8.65;;;;;;;11.38;100.00;97271.53;4965606;28;20074;-66
2021/11/04 04:01:46;;;;;;;17.67;8.65;;;;;;;11.34;100.00;97267.91;4964524;28;20450;-65
2021/11/04 04:04:12;;;;;;;26.58;11.00;;;;;;;11.42;100.00;97261.31;4965324;28;20157;-66
2021/11/04 04:06:39;;;;;;;18.17;8.98;;;;;;;11.19;100.00;97220.91;4964088;28;20054;-66
2021/11/04 04:09:08;;;;;;;20.05;9.15;;;;;;;11.51;100.00;97261.06;4964200;28;20059;-65
2021/11/04 04:11:35;;;;;;;15.23;9.60;;;;;;;11.18;100.00;97216.50;4965153;28;20054;-66
2021/11/04 04:14:02;;;;;;;18.15;8.68;;;;;;;11.57;100.00;97271.47;4965141;28;20084;-67
2021/11/04 04:16:28;;;;;;;14.68;8.07;;;;;;;11.45;100.00;97271.69;4964286;28;20050;-65
2021/11/04 04:18:55;;;;;;;19.20;7.88;;;;;;;9.11;100.00;96911.66;4963768;28;20046;-67
2021/11/04 04:21:21;;;;;;;16.13;8.07;;;;;;;10.96;100.00;97212.56;4964457;28;20058;-66
2021/11/04 04:23:48;;;;;;;20.35;8.90;;;;;;;11.32;100.00;97264.69;4964993;28;20092;-67
2021/11/04 04:26:15;;;;;;;14.55;8.02;;;;;;;11.32;100.00;97263.88;4964473;28;20046;-67
2021/11/04 04:28:42;;;;;;;18.00;9.07;;;;;;;11.21;100.00;97244.31;4963884;28;20055;-66
2021/11/04 04:31:09;;;;;;;20.15;8.85;;;;;;;11.45;100.00;97280.00;4964979;28;20077;-66
2021/11/04 04:33:36;;;;;;;18.75;10.55;;;;;;;11.49;100.00;97277.28;4963169;28;20051;-66
2021/11/04 04:36:03;;;;;;;26.25;14.13;;;;;;;11.35;100.00;97252.09;4964209;28;20550;-68
2021/11/04 04:38:30;;;;;;;21.55;13.13;;;;;;;11.57;100.00;97273.47;4965061;28;20143;-66
2021/11/04 04:40:56;;;;;;;23.35;15.10;;;;;;;11.36;100.00;97237.03;4964584;28;20069;-66
2021/11/04 04:43:23;;;;;;;19.38;11.32;;;;;;;11.67;100.00;97295.06;4964665;28;20080;-68
2021/11/04 04:45:50;;;;;;;19.40;10.55;;;;;;;11.64;100.00;97282.72;4964643;28;20437;-66
2021/11/04 04:48:17;;;;;;;17.85;9.80;;;;;;;11.61;100.00;97283.44;4964578;28;20059;-66
2021/11/04 04:50:43;;;;;;;22.23;11.02;;;;;;;11.62;100.00;97281.44;4965107;28;20438;-65
2021/11/04 04:53:10;;;;;;;23.83;12.25;;;;;;;11.64;100.00;97277.19;4964812;28;20551;-65
2021/11/04 04:55:37;;;;;;;20.80;11.60;;;;;;;11.60;100.00;97258.84;4964841;28;20062;-66
2021/11/04 04:58:06;;;;;;;30.23;16.35;;;;;;;11.67;100.00;97264.53;4964492;28;20506;-65
2021/11/04 05:00:34;;;;;;;26.33;11.68;;;;;;;11.29;100.00;97187.00;4964119;28;20110;-66
2021/11/04 05:03:01;;;;;;;21.90;11.23;;;;;;;11.60;100.00;97258.84;4964148;28;20165;-66
2021/11/04 05:05:28;;;;;;;18.90;10.20;;;;;;;11.87;100.00;97280.72;4964334;28;20061;-66
2021/11/04 05:07:54;;;;;;;20.05;10.30;;;;;;;11.93;100.00;97295.09;4964498;28;20054;-66
2021/11/04 05:10:21;;;;;;;22.33;10.40;;;;;;;11.94;100.00;97294.72;4964538;28;20055;-68
2021/11/04 05:12:48;;;;;;;24.70;10.30;;;;;;;11.24;100.00;97185.34;4964582;28;20069;-66
2021/11/04 05:15:15;;;;;;;21.45;11.35;;;;;;;11.95;100.00;97270.50;4962509;28;20054;-67
2021/11/04 05:17:43;;;;;;;22.02;10.45;;;;;;;12.05;100.00;97297.66;4962306;28;20050;-66
2021/11/04 05:20:10;;;;;;;26.05;11.82;;;;;;;11.85;100.00;97254.53;4962537;28;20510;-66
2021/11/04 05:22:37;;;;;;;76.93;30.27;;;;;;;12.12;100.00;97303.31;4964149;28;20162;-67
2021/11/04 05:25:05;;;;;;;81.80;33.42;;;;;;;12.06;100.00;97288.16;4964266;28;20454;-68
2021/11/04 05:27:31;;;;;;;66.60;28.92;;;;;;;12.05;100.00;97286.53;4964009;28;20688;-68
2021/11/04 05:29:58;;;;;;;72.95;26.63;;;;;;;12.16;100.00;97310.53;4964781;28;20126;-67
2021/11/04 05:32:25;;;;;;;53.50;22.10;;;;;;;12.10;100.00;97302.88;4962881;28;20039;-67
2021/11/04 05:34:52;;;;;;;44.08;20.17;;;;;;;11.85;100.00;97257.28;4964981;28;20109;-68
2021/11/04 05:37:19;;;;;;;32.80;14.95;;;;;;;12.22;100.00;97313.78;4962689;28;20104;-67
2021/11/04 05:39:46;;;;;;;21.52;11.45;;;;;;;12.17;100.00;97314.13;4964055;28;20058;-63
2021/11/04 05:42:12;;;;;;;19.17;9.43;;;;;;;11.94;100.00;97302.25;4964049;28;20336;-62
2021/11/04 05:44:39;;;;;;;22.05;9.52;;;;;;;12.04;100.00;97316.28;4964531;28;20053;-65
2021/11/04 05:47:07;;;;;;;19.33;9.18;;;;;;;12.19;99.10;97315.34;4965703;28;20457;-63
2021/11/04 05:49:38;;;;;;;15.32;9.55;;;;;;;12.28;97.49;97301.19;4968263;28;20066;-65
2021/11/04 05:52:05;;;;;;;20.25;10.30;;;;;;;12.31;98.08;97322.66;4968035;28;20054;-65
2021/11/04 05:54:32;;;;;;;18.58;9.93;;;;;;;12.29;98.66;97297.22;4966429;28;20345;-63
2021/11/04 05:56:59;;;;;;;21.17;11.15;;;;;;;12.39;99.15;97318.81;4965648;28;20057;-63
2021/11/04 05:59:26;;;;;;;22.67;11.75;;;;;;;12.44;98.77;97321.22;4967805;28;20058;-65
2021/11/04 06:01:55;;;;;;;29.65;14.68;;;;;;;12.50;98.91;97319.75;4967085;28;20062;-64
2021/11/04 06:04:22;;;;;;;126.97;48.33;;;;;;;12.69;97.08;97327.97;4967441;28;20055;-64
2021/11/04 06:06:49;;;;;;;141.65;53.90;;;;;;;12.75;96.79;97331.19;4965573;28;20517;-63
2021/11/04 06:09:16;;;;;;;73.93;32.15;;;;;;;12.78;96.90;97324.88;4967432;28;20054;-64
2021/11/04 06:11:43;;;;;;;59.92;27.48;;;;;;;12.94;96.33;97320.72;4967619;28;20047;-62
2021/11/04 06:14:10;;;;;;;54.22;24.35;;;;;;;12.32;95.95;97220.66;4965953;28;20054;-62
2021/11/04 06:16:37;;;;;;;47.75;23.08;;;;;;;12.82;97.20;97309.84;4965446;28;20050;-62
2021/11/04 06:19:03;;;;;;;58.30;24.75;;;;;;;13.00;97.23;97333.16;4966955;28;20059;-63
2021/11/04 06:21:30;;;;;;;60.03;26.10;;;;;;;13.17;96.42;97335.31;4967204;28;20070;-62
2021/11/04 06:23:57;;;;;;;57.17;24.48;;;;;;;13.21;96.63;97333.41;4965450;28;20065;-62
2021/11/04 06:26:24;;;;;;;56.83;25.50;;;;;;;13.30;96.56;97347.81;4965458;28;20057;-61
2021/11/04 06:28:50;;;;;;;93.22;33.90;;;;;;;13.03;95.42;97279.53;4966910;28;20053;-63
2021/11/04 06:31:17;;;;;;;88.07;29.83;;;;;;;13.50;95.04;97345.63;4967230;28;20506;-63
2021/11/04 06:33:44;;;;;;;52.80;21.13;;;;;;;13.42;96.39;97339.19;4966952;28;20046;-63
2021/11/04 06:36:11;;;;;;;37.28;16.25;;;;;;;12.71;95.48;97211.63;4962093;28;20502;-62
2021/11/04 06:38:38;;;;;;;37.00;17.83;;;;;;;13.00;96.09;97266.41;4963326;28;20050;-66
2021/11/04 06:41:04;;;;;;;33.72;16.67;;;;;;;13.54;96.38;97352.84;4965106;28;20137;-64
2021/11/04 06:43:31;;;;;;;38.75;17.80;;;;;;;12.99;95.93;97272.31;4962099;28;20046;-62
2021/11/04 06:46:01;;;;;;;34.03;15.75;;;;;;;13.66;96.41;97338.63;4968351;28;20068;-65
2021/11/04 06:48:43;;;;;;;34.95;15.75;;;;;;;13.81;95.40;97327.63;4966171;28;20062;-68
2021/11/04 06:51:17;;;;;;;37.53;15.70;;;;;;;13.61;94.70;97290.84;4960654;28;20062;-64
2021/11/04 06:53:55;;;;;;;34.75;16.23;;;;;;;13.98;93.92;97332.53;4963892;28;20050;-63
2021/11/04 06:56:23;;;;;;;32.65;14.70;;;;;;;14.01;92.20;97338.16;4958593;28;20058;-64
2021/11/04 06:58:52;;;;;;;31.58;15.38;;;;;;;14.12;93.14;97346.59;4977939;28;20062;-66
2021/11/04 07:01:21;;;;;;;33.90;16.48;;;;;;;13.83;90.57;97273.13;4965494;28;20501;-67
2021/11/04 07:03:57;;;;;;;31.27;15.85;;;;;;;14.33;90.60;97352.38;4965609;28;20058;-66
2021/11/04 07:06:29;;;;;;;35.88;15.75;;;;;;;14.23;90.26;97350.25;4965265;28;20105;-66
2021/11/04 07:08:58;;;;;;;39.08;17.00;;;;;;;13.17;91.04;97199.03;4964668;28;20601;-66
2021/11/04 07:11:28;;;;;;;38.88;16.00;;;;;;;13.84;91.07;97276.72;4965332;28;20054;-64
2021/11/04 07:13:54;;;;;;;39.38;17.45;;;;;;;14.51;88.87;97356.09;4965292;28;20054;-63
2021/11/04 07:16:23;;;;;;;40.40;18.77;;;;;;;14.64;88.70;97362.91;4952941;28;20078;-63
2021/11/04 07:18:51;;;;;;;34.92;15.88;;;;;;;14.73;87.71;97357.81;4964679;28;20046;-67
2021/11/04 07:21:25;;;;;;;30.35;15.02;;;;;;;14.84;86.21;97353.88;4964156;28;20265;-63
2021/11/04 07:23:59;;;;;;;36.72;16.33;;;;;;;14.74;86.95;97393.69;4959421;28;20505;-61
2021/11/04 07:26:34;;;;;;;39.28;18.17;;;;;;;13.28;87.44;97152.63;4965182;28;20055;-64
2021/11/04 07:29:05;;;;;;;47.50;19.33;;;;;;;13.99;86.87;97250.59;4965161;28;20057;-65
2021/11/04 07:31:41;;;;;;;40.55;19.15;;;;;;;14.75;87.08;97355.41;4954897;28;20058;-69
2021/11/04 07:34:11;;;;;;;38.15;16.77;;;;;;;14.33;86.27;97277.13;4944801;28;20062;-67
2021/11/04 07:36:40;;;;;;;35.70;16.15;;;;;;;14.31;86.14;97307.34;4944759;29;20067;-63
2021/11/04 07:39:11;;;;;;;35.03;15.95;;;;;;;14.43;86.07;97315.41;4944744;28;20063;-67
2021/11/04 07:41:38;;;;;;;34.85;15.93;;;;;;;14.94;86.43;97360.69;4946490;28;20254;-63
2021/11/04 07:44:05;;;;;;;33.50;15.70;;;;;;;15.20;83.99;97360.44;4948354;28;20051;-64
2021/11/04 07:46:32;;;;;;;37.25;16.23;;;;;;;14.52;83.81;97285.19;4962398;28;20048;-67
2021/11/04 07:49:00;;;;;;;39.45;17.42;;;;;;;15.14;83.31;97373.16;4969601;28;20114;-64
2021/11/04 07:51:27;;;;;;;38.55;18.45;;;;;;;15.28;83.03;97367.66;4969044;28;20054;-64
2021/11/04 07:53:56;;;;;;;45.88;18.33;;;;;;;15.13;82.44;97321.31;4965143;28;20043;-63
2021/11/04 07:56:23;;;;;;;41.05;18.35;;;;;;;15.14;81.94;97359.22;4981402;28;20485;-62
2021/11/04 07:58:50;;;;;;;41.53;18.77;;;;;;;15.10;83.35;97355.59;4972346;28;20050;-62
2021/11/04 08:01:17;;;;;;;36.30;17.27;;;;;;;15.17;83.53;97347.28;4965292;28;20062;-65
2021/11/04 08:03:46;;;;;;;36.15;17.25;;;;;;;15.23;83.28;97348.47;4964153;28;20421;-65
2021/11/04 08:06:15;;;;;;;35.78;16.23;;;;;;;14.87;82.25;97240.75;4964267;28;20051;-69
2021/11/04 08:08:42;;;;;;;37.63;17.65;;;;;;;15.01;80.94;97271.47;4956321;28;20057;-64
2021/11/04 08:11:09;;;;;;;35.83;16.92;;;;;;;15.36;80.68;97349.72;4953058;28;20057;-66
2021/11/04 08:13:35;;;;;;;37.05;17.45;;;;;;;14.90;80.36;97223.22;4962546;28;20560;-61
2021/11/04 08:16:02;;;;;;;37.90;18.02;;;;;;;14.88;80.10;97198.50;4962565;28;20043;-60
2021/11/04 08:18:29;;;;;;;37.28;17.80;;;;;;;15.55;80.71;97348.63;4963795;28;20638;-64
2021/11/04 08:20:56;;;;;;;32.58;14.98;;;;;;;14.86;81.33;97251.09;4956237;28;20051;-63
2021/11/04 08:23:23;;;;;;;34.72;15.93;;;;;;;15.84;80.10;97356.66;4963045;28;20047;-65
2021/11/04 08:25:49;;;;;;;31.90;14.18;;;;;;;15.97;79.10;97360.66;4964606;28;20054;-62
2021/11/04 08:28:16;;;;;;;29.25;14.70;;;;;;;15.38;78.35;97274.78;4963434;28;20130;-64
2021/11/04 08:30:43;;;;;;;34.13;14.38;;;;;;;16.11;76.83;97349.47;4964173;28;20543;-63
2021/11/04 08:33:10;;;;;;;30.98;14.85;;;;;;;16.13;76.31;97352.69;4964990;28;20120;-63
2021/11/04 08:35:38;;;;;;;21.10;10.93;;;;;;;15.75;77.47;97331.09;4962447;28;20054;-63
2021/11/04 08:38:04;;;;;;;22.00;10.40;;;;;;;15.92;77.99;97351.84;4964179;28;20061;-62
2021/11/04 08:40:31;;;;;;;22.45;11.25;;;;;;;15.11;78.67;97259.56;4963245;28;20053;-64
2021/11/04 08:43:00;;;;;;;24.92;10.70;;;;;;;15.32;77.56;97228.88;4956856;28;20051;-64
2021/11/04 08:45:27;;;;;;;24.35;11.40;;;;;;;15.72;78.45;97351.44;4958469;28;20055;-64
2021/11/04 08:47:54;;;;;;;19.30;10.68;;;;;;;16.04;77.64;97341.13;4955919;28;20065;-63
2021/11/04 08:50:20;;;;;;;23.65;11.43;;;;;;;14.98;83.55;97364.31;4959702;28;20047;-66
2021/11/04 08:52:52;;;;;;;40.65;12.00;;;;;;;14.81;85.15;97332.34;4961553;28;20154;-64
2021/11/04 08:55:20;;;;;;;22.65;12.05;;;;;;;15.34;83.01;97321.41;4949581;28;20441;-65
2021/11/04 08:57:49;;;;;;;23.65;11.32;;;;;;;15.28;81.26;97327.75;4961139;28;20051;-63
2021/11/04 09:00:16;;;;;;;17.50;9.05;;;;;;;16.17;79.21;97367.44;4962983;28;20050;-67
2021/11/04 09:02:42;;;;;;;21.48;11.02;;;;;;;16.37;79.23;97329.53;4962186;28;20144;-64
2021/11/04 09:05:10;;;;;;;20.38;10.00;;;;;;;15.67;80.46;97323.09;4963287;28;20063;-65
2021/11/04 09:07:39;;;;;;;20.52;10.00;;;;;;;14.58;81.33;97150.63;4961700;28;20510;-66
2021/11/04 09:10:09;;;;;;;19.83;10.20;;;;;;;16.08;78.92;97311.16;4961986;28;20057;-69
2021/11/04 09:12:37;;;;;;;22.27;10.40;;;;;;;16.49;77.95;97337.50;4954626;28;20532;-63
2021/11/04 09:15:05;;;;;;;22.75;10.82;;;;;;;16.56;77.85;97331.94;4963445;28;20050;-61
2021/11/04 09:17:32;;;;;;;19.42;9.82;;;;;;;15.34;81.13;97296.28;4962652;28;20046;-66
2021/11/04 09:19:58;;;;;;;22.45;10.90;;;;;;;15.55;83.99;97332.66;4961616;28;20169;-65
2021/11/04 09:22:25;;;;;;;26.20;12.15;;;;;;;15.78;81.57;97307.16;4959139;28;20141;-63
2021/11/04 09:24:53;;;;;;;19.10;10.85;;;;;;;15.53;80.82;97240.09;4962321;28;20051;-64
2021/11/04 09:27:20;;;;;;;24.00;12.07;;;;;;;16.44;79.42;97329.53;4966192;28;20055;-67
2021/11/04 09:29:48;;;;;;;24.10;10.70;;;;;;;15.54;81.06;97233.31;4959933;28;20047;-66
2021/11/04 09:32:15;;;;;;;19.40;11.23;;;;;;;16.12;79.35;97295.16;4966627;28;20148;-62
2021/11/04 09:35:01;;;;;;;18.70;10.60;;;;;;;16.33;79.50;97292.38;4966445;28;20477;-62
2021/11/04 09:37:28;;;;;;;23.25;10.80;;;;;;;15.71;79.47;97207.38;4966887;28;20070;-62
2021/11/04 09:39:55;;;;;;;19.95;10.98;;;;;;;16.44;79.13;97318.34;4965484;28;20058;-67
2021/11/04 09:42:22;;;;;;;23.92;11.23;;;;;;;16.35;77.42;97264.81;4966271;28;20075;-64
2021/11/04 09:44:51;;;;;;;16.83;9.70;;;;;;;16.94;76.49;97315.41;4967752;28;20190;-65
2021/11/04 09:47:28;;;;;;;16.95;9.75;;;;;;;16.73;76.18;97323.88;4966595;28;20540;-64
2021/11/04 09:49:57;;;;;;;17.60;10.05;;;;;;;16.73;76.48;97318.28;4967756;28;20053;-68
2021/11/04 09:52:26;;;;;;;15.77;9.23;;;;;;;17.28;74.41;97317.28;4966957;28;20058;-66
2021/11/04 09:54:54;;;;;;;18.55;9.82;;;;;;;17.68;72.91;97313.88;4966980;28;20046;-68
2021/11/04 09:57:27;;;;;;;17.92;9.60;;;;;;;17.30;73.02;97255.25;4966923;28;20076;-67
2021/11/04 09:59:55;;;;;;;18.27;10.70;;;;;;;17.92;72.12;97317.72;4967558;28;20068;-67
2021/11/04 10:02:24;;;;;;;19.13;9.48;;;;;;;18.05;70.93;97313.22;4965550;28;20055;-67
2021/11/04 10:04:52;;;;;;;19.13;10.02;;;;;;;17.48;69.49;97164.34;4967297;28;20050;-64
2021/11/04 10:07:20;;;;;;;20.75;10.70;;;;;;;17.41;72.66;97298.00;4966576;28;20047;-65
2021/11/04 10:10:01;;;;;;;19.10;11.23;;;;;;;17.39;70.91;97216.38;4967274;28;20133;-64
2021/11/04 10:12:28;;;;;;;16.42;9.75;;;;;;;17.74;70.43;97305.81;4966949;28;20063;-64
2021/11/04 10:14:55;;;;;;;20.27;10.13;;;;;;;17.79;70.54;97302.59;4965764;28;20055;-63
2021/11/04 10:17:35;;;;;;;15.52;8.82;;;;;;;18.26;69.29;97303.84;4966875;28;20055;-63
2021/11/04 10:20:27;;;;;;;16.02;9.50;;;;;;;17.83;68.13;97208.09;4965736;28;20046;-64
2021/11/04 10:23:11;;;;;;;19.45;9.68;;;;;;;18.60;67.49;97294.31;4965680;28;20062;-67
2021/11/04 10:25:38;;;;;;;18.90;10.45;;;;;;;18.91;66.33;97290.34;4965681;28;20054;-64
2021/11/04 10:28:28;;;;;;;15.95;10.40;;;;;;;18.69;67.07;97283.38;4966311;28;20517;-63
2021/11/04 10:30:56;;;;;;;19.00;9.55;;;;;;;17.71;65.60;97079.69;4966470;28;20054;-63
2021/11/04 10:33:23;;;;;;;18.30;11.68;;;;;;;18.85;65.36;97297.63;4964210;28;20051;-63
2021/11/04 10:36:14;;;;;;;16.23;9.90;;;;;;;18.76;66.70;97283.28;4965194;28;20051;-63
2021/11/04 10:38:56;;;;;;;16.05;8.48;;;;;;;18.02;68.16;97277.56;4966379;28;20062;-63
2021/11/04 10:41:32;;;;;;;17.13;9.23;;;;;;;18.38;67.35;97287.31;4966336;28;20537;-63
2021/11/04 10:44:20;;;;;;;17.10;10.63;;;;;;;16.78;67.41;97040.88;4964518;28;20081;-63
2021/11/04 10:46:56;;;;;;;22.87;11.20;;;;;;;18.59;66.46;97273.06;4964681;28;20058;-63
2021/11/04 10:49:25;;;;;;;17.63;10.05;;;;;;;18.14;67.08;97229.41;4966587;28;20050;-67
2021/11/04 10:52:04;;;;;;;19.02;10.05;;;;;;;18.06;67.70;97241.91;4965532;28;20066;-66
2021/11/04 10:54:50;;;;;;;16.42;10.13;;;;;;;18.69;66.84;97280.56;4966474;28;20055;-65
2021/11/04 10:57:46;;;;;;;26.73;10.68;;;;;;;16.58;67.48;96959.53;4964444;28;20573;-66
2021/11/04 11:00:17;;;;;;;19.10;10.65;;;;;;;18.96;66.66;97270.25;4965252;28;20046;-67
2021/11/04 11:03:03;;;;;;;16.33;10.48;;;;;;;19.34;64.86;97257.72;4966346;28;20433;-68
2021/11/04 11:05:32;;;;;;;17.50;10.18;;;;;;;19.12;65.00;97219.09;4958926;28;20093;-69
2021/11/04 11:08:07;;;;;;;17.90;10.17;;;;;;;19.80;63.18;97261.88;4958424;28;20053;-68
2021/11/04 11:10:38;;;;;;;17.08;9.63;;;;;;;19.90;61.08;97221.53;4965176;28;20051;-69
2021/11/04 11:13:06;;;;;;;17.45;9.85;;;;;;;20.22;59.50;97233.84;4963663;28;20054;-62
2021/11/04 11:15:34;;;;;;;17.35;10.18;;;;;;;19.01;61.27;97132.19;4964765;28;20047;-65
2021/11/04 11:18:05;;;;;;;21.92;10.27;;;;;;;20.14;60.25;97265.38;4964554;28;20043;-64
2021/11/04 11:20:41;;;;;;;18.27;10.38;;;;;;;20.01;61.04;97253.88;4964429;28;20050;-67
2021/11/04 11:23:19;;;;;;;18.27;11.20;;;;;;;19.95;62.49;97252.00;4956219;28;20146;-66
2021/11/04 11:26:10;;;;;;;21.65;10.15;;;;;;;19.93;61.66;97246.00;4953904;28;20573;-65